Airfield :
LOGIN :

Register | Disclaimer

   EN    FR    IT 

 










Legend :    VFR   Marginal VFR   IFR   Intensive IFR   Very Intensive IFR
Visi :
Ceiling :
>= 8 km
>= 3000ft
5 to 8 km
1000 to 3000 ft
1500m to 5 km
500 to 1000 ft
800 to 1500m
200 to 500 ft
< 800m
< 200 ft
Symbols :   Thunderstorms  Fog  Heavy snow  Heavy precipitations  Wind > 20 kt
SIGMETs :     Misc.  Thunderstorms  Icing  Turbulence  Mountain Waves  Volcanic Ashes






- Airport Elevation : 2026 ft
- IATA code : TOJ


LETO - Madrid Torrejon

CURRENT METAR :
  • 031330Z 21012G22KT 170V250 9999 FEW060 30/08 Q1016 NOSIG

EXPIRED METARs :
  • 031300Z 24010KT 190V290 9999 FEW060 29/09 Q1017 NOSIG
  • 031230Z 22009KT 170V300 CAVOK 28/09 Q1017 NOSIG
  • 031200Z 20006KT 140V300 CAVOK 27/11 Q1017 NOSIG
  • 031130Z 19008KT 150V220 CAVOK 27/12 Q1018 NOSIG
  • 031100Z 22004KT CAVOK 25/12 Q1018 NOSIG

TAF TAF LETO
Valid from the 03 at 12:00 until the 04 at 12:00 UTC


031100Z 0312/0412 23010KT CAVOK TX32/0315Z TN16/0405Z
TEMPO 0320/0322 26008KT
BECMG 0322/0323 30007KT
TEMPO 0407/0409 03010KT
BECMG 0410/0412 33012KT



MET'MAP, your aeronautical weather chart ! - Copyright ORBIFLY December 2007 - Disclaimer

ORBIFLY MET'MAP TEAM :

Programming & Development : Alexandra Zaïnal
Concept & original design : Baudouin d'Aumeries
Assistance for programming : Marc-Olivier Méhu
Technical & hardware support : Manuel Goepfert

Contact : metmap@orbifly.com




SOURCES & CREDITS :

   NOAA